Redgranite, Wisconsin
Current Conditions -  °F | °C
As of 6:56 PM on Monday 20 Oct 2014 (Local Time) from KY50 Reporting Station
Overcast Overcast  
Wind Chill: 11°   Ceiling: 100
Heat Index: 11°   Visibility: 10mi
Dew Point:   Wind: 7mph
Humidity: 69%   Direction: 340°NNW
Pressure: 30.01"   Gusts: NA
Location:  44.04°N, 89.1°W
Report Text: KY50 202356Z AUTO 34006KT 10SM OVC001 11/06 A3001 RMK AO2 TSNO 53022 T01110055 10127 20111 SLP162
Loading
Personal Weather Stations






























Interactive Weather Map
Tropical Storm Tracking
New forecast layout! Learn more

10-Day Weather Forecast

Advertisements
Track Severe Weather on mobile